Latest METARs, TAFs and NOTAMs for LTFJ


---------------------------------------------------------------------------
	(OBSERVATIONS)
LTFJ 260520Z VRB02KT CAVOK 18/11 Q1014 NOSIG RMK RWY24 VRB02KT=
LTFJ 260450Z 12003KT CAVOK 15/11 Q1014 NOSIG RMK RWY24 VRB01KT=
LTFJ 260420Z 10003KT 040V160 CAVOK 14/11 Q1014 NOSIG RMK RWY24
    VRB02KT=
LTFJ 260350Z 07003KT 040V150 CAVOK 14/10 Q1014 NOSIG RMK RWY24
    VRB02KT=
LTFJ 260320Z 05005KT CAVOK 13/10 Q1014 NOSIG RMK RWY24 05003KT
    020V080=
---------------------------------------------------------------------------
	(FC)
Sorry, FC For LTFJ Not Found
---------------------------------------------------------------------------
	(TERMINAL AREA FORECAST)
LTFJ 260440Z 2606/2706 02009KT CAVOK=
---------------------------------------------------------------------------
	(NOTAMS)


LTFJ A0794/18 DUE TO RWY MAINTENANCE AND REPAIRS, RWY 06/24 WILL
    BE CLSD TO TAKE OFF/LANDING TFC AS THE FOLLOWING DATES AND
    TIMES: DATES AND TIMES: MAR 25 2018 - OCT 27 2018 (EXC JUN
    13 2150 - JUN 19 2150 AND AUG 19 2300 - AUG 27 2150) MON:
    0000-0159, 2150-2359 TUE: 0000-0249, 2150-2359 WED: 0000-0249,
    2150-2359 THU: 0000-0249, 2150-2359 FRI: 0000-0249, 2300-2359
    SAT: 0000-0159, 2150-2359 SUN: 0000-0249, 2300-2359 NOTE:
    DEPARTURE TRAFFIC SHALL REQUEST START UP AND PUSH-BACK CLEARANCE
    REGARDLESS OF SLOT TIME AT THE LATEST 25MIN BEFORE RWY CLOSURE
    TIME. OTHERWISE, START UP AND PUSH BACK CLEARANCE SHALL NOT
    BE ALLOWED. 25 MAR 23:00 2018 UNTIL 27 OCT 23:59 2018. CREATED:
    07 FEB 11:07 2018

LTFJ A1294/18 SABIHA GOKCEN AERODROME, ADVISED TO TRAFFICS, BE
    READY FOR UNEXPECTED DELAYS -BECAUSE OF CONST WORKS ON RWY
    06/24-. 07 MAR 17:00 2018 UNTIL 20 SEP 17:00 2018. CREATED:
    07 MAR 13:58 2018

LTFJ A1655/18 RWY 06/24 WILL BE TEMPORARILY CLSD TO DEP AND ARR
    TFC DUE TO RWY MAINTENANCE AND REPAIRS AS FOLLOWS DATE AND
    TIME: DATE AND TIME BTN 01 NOV 2018-30 MAR 2019 (EXC BTN
    31 DEC 2018 2200 UTC-01 JAN 2019 0259 UTC) MON: 0000-0200
    UTC, 2200-2359 UTC TUE: 0000-0259 UTC, 2200-2359 UTC WED:
    0000-0259 UTC, 2200-2359 UTC THU: 0000-0259 UTC, 2200-2359
    UTC FRI: 0000-0259 UTC, 2300-2359 UTC SAT: 0000-0200 UTC,
    2200-2359 UTC SUN: 0000-0259 UTC, 2300-2359 UTC NOTE: PILOTS
    OF DEP TFC SHALL REQUEST START UP AND PUSH-BACK CLEARANCE
    BEFORE 25 MINUTES FROM RWY CLOSURE TIME NOT REGARDING SLOT
    TIME. OTHERWISE THEY SHALL NOT BE ALLOWED TO START UP AND
    PUSH-BACK. 01 NOV 22:00 2018 UNTIL 30 MAR 23:59 2019. CREATED:
    22 MAR 12:39 2018

LTFJ A1678/18 ELECTRIC MASTS (CABLE CONNECTED EACH OTHER) ERECTED
    AND NOT LIGHTED WITH FOLLOWING PROPERTIES COORDINATES ELEVATION
    AT TOP HEIGHT(FT) 405509.11N0291807.96E 684.3 FT 279.8 FT
    405504.77N0291754.58E 673.8 FT 273.2 FT 405459.54N0291739.81E
    679.2 FT 279.8 FT 405452.26N0291719.33E 796.5 FT 276.5 FT
    405446.83N0291704.04E 849.0 FT 279.8 FT 405443.05N0291652.81E
    741.2 FT 229.6 FT 405438.48N0291640.04E 771.1 FT 273.2 FT
    405429.48N0291617.67E 751.7 FT 273.2 FT 405424.68N0291601.66E
    920.6 FT 273.2 FT 405419.44N0291545.77E 809.0 FT 229.6 FT
    405414.92N0291534.20E 947.2 FT 276.5 FT 405412.21N0291524.94E
    917.8 FT 286.4 FT 405405.53N0291508.01E 937.9 FT 229.6 FT
    405358.68N0291451.63E 929.4 FT 273.2 FT 405351.22N0291433.76E
    867.8 FT 276.5 FT 405347.23N0291424.21E 820.8 FT 244.4 FT
    405342.70N0291413.37E 559.8 FT 230.6 FT. 23 MAR 07:52 2018
    UNTIL 21 SEP 09:00 2018. CREATED: 23 MAR 07:53 2018

LTFJ A1842/18 ACFT STAND 304 CLOSED TO TRAFFIC. 30 MAR 13:45
    2018 UNTIL 28 SEP 13:45 2018. CREATED: 30 MAR 14:04 2018

LTFJ A1890/18 THERE WILL BE GRASS CUTTING BY THE RWY 06/24 AND
    TWYS -ADVICE ATC INST.-. 03 APR 10:00 2018 UNTIL 03 JUL 14:00
    2018. CREATED: 03 APR 06:51 2018

LTFJ A2007/18 12 SEQUENTIAL ARMATURES OF RWY 06/24 CENTERLINE
    LIGHTS U/S. 08 APR 15:10 2018 UNTIL 08 MAY 16:00 2018. CREATED:
    08 APR 15:11 2018

LTFJ A2131/18 PRESENCE OF TIRE DEPOSIT ON RWY 06/24 TOUCHDOWN
    ZONE. 13 APR 12:50 2018 UNTIL 27 MAY 12:00 2018. CREATED:
    13 APR 12:38 2018

LTFJ A5552/17 1-INDIVIDUAL SCHEDULED FLIGHT PERMIT APPLICATIONS
    FOR ISTANBUL SABIHA GOKCEN AIRPORT SHALL NOT BE MADE. 2-DUE
    TO INSUFFICIENT CAPACITY AT ISTANBUL SABIHA GOKCEN AIRPORT,
    THE ADDITIONAL FLIGHT PERMITS EXCEPT THE RIGHTS ESTABLISHED
    UNDER BILATERAL AGREEMENTS SHALL NOT BE GRANTED FOR THE FOREIGN
    AIRLINES THAT OPERATE SCHEDULED FLIGHTS. 3-FOR THE SCHEDULED
    ISOLATED FLIGHTS EXCEPT THE ABOVE PROVISIONS, SLOT APPLICATION
    TO SLOT COORDINATION CENTER OF THE DIRECTORATE GENERAL OF
    STATES AIRPORTS ADMINISTRATIONS SHALL BE MADE AS PRIORITY.
    AFTER RECIEVING SLOT, THE APPLICATION SHALL BE EVALUATED
    BY DIRECTORATE GENERAL OF CIVIL AVIATION. 4-FLIGHTS OTHER
    THAN SCHEDULED FLIGHTS(CHARTER, GENERAL AVIATION AND SIMILAR)
    SHALL BE OPERATED ON NON-BUSY HOURS OF AERODROME AND APPROPRIATE
    TO THEIR SLOT TIME. 06 NOV 11:40 2017 UNTIL 01 MAY 07:00
    2018 ESTIMATED. CREATED: 06 NOV 11:42 2017

LTFJ A6635/17 THERE ARE SURFACE IRREGULARITIES ON RWY 06/24,
    DECREASING RIDE QUALITY. 25 DEC 11:43 2017 UNTIL 25 JUN 12:00
    2018. CREATED: 25 DEC 11:44 2017

LTFJ G4334/13 SABIHA GOKCEN HAVALIMANI'NDAKI RNAV (GNSS) SID
    VE STAR'LARIN UYGULANMA GEREKSINIMLERI ILE ILGILI HUSUSLAR
    ASAGIDAKI GIBIDIR: THESE PROCEDURES ARE MANDATORY FOR P-RNAV
    APPROVED AIRCRAFT. THEREFORE, THE P-RNAV APPROVED AIRCRAFT
    ARRIVING/DEPARTING TO/FROM LTFJ ARE REQUIRED TO FLIGHT PLAN
    OR SUBMIT A MODIFICATION MESSAGE (CHG) CONCERNING THE ROUTE
    SECTION OF THEIR RPLS AS DESCRIBED BELOW: 1-GNSS BASED RNAV
    STARS FOR LTFJ STARTS FROM THE WAYPOINTS/FIXES, DESIGNATED
    AS TETSA, PAZAR, OTSAN, ELVON, DEKEK, TURKO, GELBU AND ATVEP.
    THESE WAYPOINTS/FIXES SHALL BE THE LAST ELEMENT OF THE FLIGHT
    PLANNED ROUTES FOR THE P-RNAV APPROVED AIRCRAFT AS ILLUSTRATED
    BELOW: -A FLIGHT PLANNED ROUTE FOR THE ARRIVALS TO LTFJ VIA
    RIXEN, EXAMPLE:..... RIXEN UN616 TETSA 2- GNSS BASED RNAV
    SIDS FOR LTFJ ENDS AT THE WAYPOINTS/FIXES, DESIGNATED AS
    MARMA, GOLDO, VADEN, IBLAL, MAKOL,MOPIN, PIMAV AND EDASA.
    THESE WAYPOINTS/FIXES SHALL BE THE FIRST ELEMENT OF THE FLIGHT
    PLANNED ROUTES FOR THE P-RNAV APPROVED AIRCRAFT AS ILLUSTRATED
    BELOW: -A FLIGHT PLANNED ROUTE FOR THE DEPARTURES FROM LTFJ
    VIA MAKOL, EXAMPLE:MAKOL UN617. 17 OCT 00:00 2013 UNTIL PERM.
    CREATED: 07 JAN 07:12 2015

LTFJ G4445/14 ISTANBUL SABIHA GOKCEN HAVALIMANI: AIP SUP 06/13
    IPTAL EDILMISTIR. 18 SEP 14:52 2014 UNTIL PERM. CREATED:
    07 JAN 07:16 2015

---------------------------------------------------------------------------